Time;durP1;ratioP1;P1;durP2;ratioP2;P2;SDS_P1;SDS_P2;PMS_P1;PMS_P2;Temp;Humidity;BMP_temperature;BMP_pressure;BME280_temperature;BME280_humidity;BME280_pressure;Samples;Min_cycle;Max_cycle;Signal;HPM_P1;HPM_P2
2023/05/22 00:01:18;;;;;;;7.05;6.45;;;;;;;17.93;100.00;96284.59;5069472;28;20280;-63
2023/05/22 00:03:44;;;;;;;8.38;6.55;;;;;;;17.83;100.00;96279.59;5073029;28;20212;-64
2023/05/22 00:06:13;;;;;;;7.85;6.90;;;;;;;17.76;100.00;96277.91;5074964;28;20628;-64
2023/05/22 00:08:40;;;;;;;7.05;6.55;;;;;;;17.71;100.00;96278.47;5075060;28;20252;-64
2023/05/22 00:11:06;;;;;;;7.15;6.45;;;;;;;17.66;100.00;96280.09;5073508;28;20307;-63
2023/05/22 00:13:33;;;;;;;7.22;6.63;;;;;;;17.58;100.00;96281.06;5073634;28;20206;-62
2023/05/22 00:15:59;;;;;;;7.75;6.97;;;;;;;17.51;100.00;96276.66;5073445;28;20213;-64
2023/05/22 00:18:26;;;;;;;7.35;6.85;;;;;;;17.47;100.00;96283.41;5074070;28;20230;-65
2023/05/22 00:20:54;;;;;;;7.15;6.45;;;;;;;17.48;100.00;96285.06;5073315;28;20206;-64
2023/05/22 00:23:23;;;;;;;7.57;6.65;;;;;;;17.40;100.00;96291.38;5073281;28;20260;-64
2023/05/22 00:25:50;;;;;;;8.10;7.10;;;;;;;17.37;100.00;96289.09;5073711;28;20217;-64
2023/05/22 00:28:16;;;;;;;7.25;6.57;;;;;;;17.33;100.00;96282.50;5073602;28;20293;-64
2023/05/22 00:30:43;;;;;;;7.15;6.55;;;;;;;17.26;100.00;96287.78;5075122;28;20198;-63
2023/05/22 00:33:10;;;;;;;7.22;6.63;;;;;;;17.24;100.00;96289.00;5073738;28;20229;-63
2023/05/22 00:35:37;;;;;;;6.53;6.03;;;;;;;17.18;100.00;96287.13;5074400;28;20313;-64
2023/05/22 00:38:04;;;;;;;6.95;6.20;;;;;;;17.15;100.00;96284.81;5073699;28;20222;-63
2023/05/22 00:40:32;;;;;;;6.63;6.13;;;;;;;17.09;100.00;96282.91;5074214;28;20241;-64
2023/05/22 00:42:58;;;;;;;7.15;6.45;;;;;;;17.03;100.00;96283.69;5075919;28;20202;-63
2023/05/22 00:45:25;;;;;;;6.68;6.07;;;;;;;16.99;100.00;96280.56;5075403;28;20214;-64
2023/05/22 00:47:52;;;;;;;6.82;6.32;;;;;;;16.95;100.00;96281.13;5075003;28;20199;-66
2023/05/22 00:50:20;;;;;;;7.03;6.38;;;;;;;16.90;100.00;96284.38;5076550;28;20614;-65
2023/05/22 00:52:46;;;;;;;6.70;6.15;;;;;;;16.87;100.00;96274.06;5074834;28;20209;-63
2023/05/22 00:55:14;;;;;;;6.70;6.20;;;;;;;16.82;100.00;96279.19;5073457;28;20198;-64
2023/05/22 00:57:42;;;;;;;7.47;6.78;;;;;;;16.77;100.00;96285.06;5074400;28;20254;-63
2023/05/22 01:00:10;;;;;;;6.30;5.80;;;;;;;16.72;100.00;96286.69;5073156;28;20210;-64
2023/05/22 01:02:38;;;;;;;7.35;6.75;;;;;;;16.63;100.00;96280.63;5073028;28;20197;-65
2023/05/22 01:05:05;;;;;;;7.22;6.10;;;;;;;16.54;100.00;96287.06;5073922;28;20194;-63
2023/05/22 01:07:33;;;;;;;6.13;5.70;;;;;;;16.48;100.00;96282.47;5073245;28;20286;-64
2023/05/22 01:10:00;;;;;;;7.38;6.70;;;;;;;16.38;100.00;96292.63;5072231;28;20214;-64
2023/05/22 01:12:31;;;;;;;6.78;6.25;;;;;;;16.31;100.00;96289.88;5072904;28;20580;-65
2023/05/22 01:15:04;;;;;;;6.90;6.30;;;;;;;16.29;100.00;96291.09;5072080;28;20255;-64
2023/05/22 01:17:37;;;;;;;7.38;6.55;;;;;;;16.22;100.00;96295.50;5073015;28;20238;-64
2023/05/22 01:20:10;;;;;;;6.88;6.28;;;;;;;16.16;100.00;96290.91;5072033;28;20619;-63
2023/05/22 01:23:04;;;;;;;7.85;6.65;;;;;;;16.12;100.00;96294.97;5072560;28;20226;-62
2023/05/22 01:25:53;;;;;;;6.47;5.88;;;;;;;16.09;100.00;96290.81;5057533;28;20214;-64
2023/05/22 01:28:38;;;;;;;6.68;6.07;;;;;;;16.06;100.00;96290.34;5072501;28;20214;-64
2023/05/22 01:31:10;;;;;;;6.82;5.95;;;;;;;16.06;100.00;96293.03;5073464;28;20521;-63
2023/05/22 01:33:42;;;;;;;7.20;6.60;;;;;;;16.03;100.00;96285.41;5072468;28;20252;-64
2023/05/22 01:36:09;;;;;;;7.20;6.50;;;;;;;15.98;100.00;96298.47;5072074;28;20289;-63
2023/05/22 01:38:36;;;;;;;7.32;6.53;;;;;;;15.85;100.00;96297.28;5072758;28;20229;-64
2023/05/22 01:41:03;;;;;;;8.05;6.45;;;;;;;15.85;100.00;96299.13;5073022;28;20605;-64
2023/05/22 01:43:29;;;;;;;7.05;6.35;;;;;;;15.75;100.00;96306.56;5071622;28;20640;-64
2023/05/22 01:45:56;;;;;;;6.53;6.03;;;;;;;15.69;100.00;96300.13;5072630;28;20202;-65
2023/05/22 01:48:24;;;;;;;6.78;6.20;;;;;;;15.63;100.00;96303.50;5072660;28;20210;-63
2023/05/22 01:50:51;;;;;;;6.32;5.80;;;;;;;15.55;100.00;96300.94;5072962;28;20214;-63
2023/05/22 01:53:22;;;;;;;6.45;5.60;;;;;;;15.49;100.00;96306.16;5072026;28;20219;-64
2023/05/22 01:55:55;;;;;;;6.65;5.95;;;;;;;15.42;100.00;96290.88;5072772;28;20590;-62
2023/05/22 01:58:27;;;;;;;6.43;5.82;;;;;;;15.36;100.00;96298.75;5071804;28;20655;-63
2023/05/22 02:00:56;;;;;;;5.82;5.22;;;;;;;15.37;100.00;96297.75;5072311;28;20199;-64
2023/05/22 02:03:28;;;;;;;6.47;5.82;;;;;;;15.32;100.00;96294.81;5072211;28;20242;-63
2023/05/22 02:05:55;;;;;;;6.28;5.75;;;;;;;15.24;100.00;96293.03;5072985;28;20210;-64
2023/05/22 02:08:23;;;;;;;6.20;5.60;;;;;;;15.17;100.00;96299.25;5073057;28;20209;-63
2023/05/22 02:10:51;;;;;;;6.00;5.50;;;;;;;15.15;100.00;96299.44;5084786;28;20277;-64
2023/05/22 02:13:18;;;;;;;7.05;6.00;;;;;;;15.11;100.00;96303.47;5090245;28;20202;-64
2023/05/22 02:15:45;;;;;;;6.03;5.57;;;;;;;15.13;100.00;96304.13;5087303;28;20206;-64
2023/05/22 02:18:12;;;;;;;9.18;5.55;;;;;;;15.11;100.00;96303.47;5088895;28;20222;-64
2023/05/22 02:20:41;;;;;;;5.55;5.15;;;;;;;15.08;100.00;96308.34;5091772;28;20198;-64
2023/05/22 02:23:07;;;;;;;5.72;5.32;;;;;;;15.06;100.00;96305.00;5093066;28;20214;-64
2023/05/22 02:25:34;;;;;;;7.03;5.97;;;;;;;14.97;100.00;96306.09;5093510;28;20223;-63
2023/05/22 02:28:01;;;;;;;5.70;5.20;;;;;;;14.99;100.00;96296.91;5089843;28;20205;-64
2023/05/22 02:30:27;;;;;;;6.32;5.60;;;;;;;14.95;100.00;96300.94;5089948;28;20206;-64
2023/05/22 02:32:56;;;;;;;5.57;5.05;;;;;;;14.98;100.00;96294.44;5072168;28;20581;-64
2023/05/22 02:35:22;;;;;;;6.72;5.97;;;;;;;14.91;100.00;96287.16;5071245;28;20199;-64
2023/05/22 02:37:50;;;;;;;6.07;5.60;;;;;;;14.88;100.00;96292.81;5070435;28;20210;-63
2023/05/22 02:40:17;;;;;;;7.23;5.57;;;;;;;14.74;100.00;96292.75;5070260;28;20237;-63
2023/05/22 02:42:43;;;;;;;6.65;5.63;;;;;;;14.72;100.00;96297.44;5071742;28;20221;-64
2023/05/22 02:45:10;;;;;;;6.25;5.75;;;;;;;14.71;100.00;96304.59;5070977;28;20207;-64
2023/05/22 02:47:36;;;;;;;6.20;5.70;;;;;;;14.71;100.00;96301.94;5070129;28;20222;-64
2023/05/22 02:50:03;;;;;;;6.32;5.70;;;;;;;14.64;100.00;96308.13;5070869;28;20272;-63
2023/05/22 02:52:30;;;;;;;6.57;5.50;;;;;;;14.60;100.00;96310.31;5071482;28;20202;-64
2023/05/22 02:54:58;;;;;;;6.17;5.57;;;;;;;14.60;100.00;96305.00;5070533;28;20199;-64
2023/05/22 02:57:24;;;;;;;5.85;5.35;;;;;;;14.67;100.00;96308.63;5070638;28;20210;-63
2023/05/22 02:59:51;;;;;;;6.80;6.20;;;;;;;14.63;100.00;96309.16;5069754;28;20222;-63
2023/05/22 03:02:18;;;;;;;6.90;5.97;;;;;;;14.60;100.00;96318.31;5071155;28;20287;-64
2023/05/22 03:04:45;;;;;;;8.57;6.18;;;;;;;14.53;100.00;96314.69;5070896;28;20230;-64
2023/05/22 03:07:12;;;;;;;6.77;6.10;;;;;;;14.50;100.00;96308.91;5070834;28;20206;-63
2023/05/22 03:09:38;;;;;;;6.50;6.00;;;;;;;14.49;100.00;96305.41;5070268;28;20285;-63
2023/05/22 03:12:07;;;;;;;6.60;6.10;;;;;;;14.47;100.00;96304.75;5070556;28;20198;-63
2023/05/22 03:14:33;;;;;;;6.57;6.07;;;;;;;14.40;100.00;96304.63;5070410;28;20202;-63
2023/05/22 03:17:00;;;;;;;6.88;6.28;;;;;;;14.41;100.00;96300.97;5070040;28;20582;-64
2023/05/22 03:19:26;;;;;;;7.00;6.40;;;;;;;14.35;100.00;96303.47;5069918;28;20230;-63
2023/05/22 03:21:53;;;;;;;6.88;6.25;;;;;;;14.38;100.00;96313.81;5070218;28;20210;-63
2023/05/22 03:24:19;;;;;;;7.03;6.32;;;;;;;14.28;100.00;96302.50;5069569;28;20230;-63
2023/05/22 03:26:46;;;;;;;6.25;5.75;;;;;;;14.24;100.00;96315.31;5070319;28;20210;-63
2023/05/22 03:29:14;;;;;;;7.05;6.38;;;;;;;14.27;100.00;96308.84;5069578;28;20194;-63
2023/05/22 03:31:40;;;;;;;6.43;5.93;;;;;;;14.17;100.00;96313.53;5070691;28;20221;-63
2023/05/22 03:34:07;;;;;;;6.30;5.80;;;;;;;14.20;100.00;96314.03;5070196;28;20203;-63
2023/05/22 03:36:34;;;;;;;6.75;6.05;;;;;;;14.22;100.00;96311.19;5070648;28;20198;-63
2023/05/22 03:39:00;;;;;;;6.70;5.88;;;;;;;14.20;100.00;96314.03;5072799;28;20962;-63
2023/05/22 03:41:26;;;;;;;6.63;5.97;;;;;;;14.13;100.00;96304.25;5074988;28;20217;-63
2023/05/22 03:43:53;;;;;;;5.83;5.43;;;;;;;14.17;100.00;96310.88;5073329;28;20217;-63
2023/05/22 03:46:21;;;;;;;6.63;5.67;;;;;;;14.12;100.00;96310.56;5073801;28;20276;-63
2023/05/22 03:48:47;;;;;;;6.97;6.13;;;;;;;14.07;100.00;96312.91;5074041;28;20199;-63
2023/05/22 03:51:14;;;;;;;6.80;6.00;;;;;;;14.00;100.00;96312.75;5074291;28;20217;-63
2023/05/22 03:53:40;;;;;;;6.20;5.73;;;;;;;14.01;100.00;96314.44;5074008;28;20268;-63
2023/05/22 03:56:07;;;;;;;6.90;5.73;;;;;;;13.94;100.00;96303.66;5073845;28;20206;-63
2023/05/22 03:58:33;;;;;;;7.37;5.83;;;;;;;14.01;100.00;96306.44;5072699;28;20229;-63
2023/05/22 04:01:00;;;;;;;7.27;5.77;;;;;;;14.02;100.00;96316.09;5072906;28;20547;-63
2023/05/22 04:03:28;;;;;;;5.60;5.10;;;;;;;13.96;100.00;96314.94;5073756;28;20646;-62
2023/05/22 04:05:55;;;;;;;6.03;5.60;;;;;;;13.89;100.00;96308.66;5073294;28;20218;-63
2023/05/22 04:08:22;;;;;;;6.30;5.77;;;;;;;13.91;100.00;96314.63;5072960;28;20203;-63
2023/05/22 04:10:48;;;;;;;6.40;5.77;;;;;;;13.94;100.00;96322.25;5073009;28;20210;-63
2023/05/22 04:13:16;;;;;;;6.00;5.53;;;;;;;14.03;100.00;96317.72;5073183;28;20512;-64
2023/05/22 04:15:44;;;;;;;5.80;5.33;;;;;;;14.11;100.00;96327.50;5073344;28;20207;-64
2023/05/22 04:18:11;;;;;;;5.90;5.40;;;;;;;14.17;100.00;96332.97;5073188;28;20554;-64
2023/05/22 04:20:40;;;;;;;6.70;6.07;;;;;;;14.14;100.00;96324.50;5072402;28;20260;-64
2023/05/22 04:23:07;;;;;;;6.40;5.80;;;;;;;14.13;100.00;96336.16;5072939;28;20553;-63
2023/05/22 04:25:35;;;;;;;6.20;5.60;;;;;;;14.20;100.00;96334.47;5073239;28;20226;-64
2023/05/22 04:28:02;;;;;;;5.50;5.10;;;;;;;14.20;100.00;96337.97;5071348;28;20210;-64
2023/05/22 04:30:29;;;;;;;6.10;5.50;;;;;;;14.24;100.00;96341.09;5073079;28;20210;-64
2023/05/22 04:32:56;;;;;;;6.23;5.73;;;;;;;14.26;100.00;96344.41;5073119;28;20229;-63
2023/05/22 04:35:22;;;;;;;7.10;6.40;;;;;;;14.31;100.00;96342.06;5073076;28;20194;-64
2023/05/22 04:37:50;;;;;;;6.03;5.53;;;;;;;14.48;100.00;96343.69;5073135;28;20220;-64
2023/05/22 04:40:17;;;;;;;6.00;5.50;;;;;;;14.69;100.00;96343.06;5072616;28;20638;-65
2023/05/22 04:42:44;;;;;;;6.20;5.73;;;;;;;14.79;100.00;96355.13;5074154;28;20222;-64
2023/05/22 04:45:12;;;;;;;6.57;6.07;;;;;;;14.82;100.00;96357.44;5073086;28;20207;-63
2023/05/22 04:47:40;;;;;;;6.60;6.00;;;;;;;14.84;100.00;96360.75;5071794;28;20563;-63
2023/05/22 04:50:07;;;;;;;6.03;5.53;;;;;;;14.91;100.00;96367.03;5075848;28;20225;-63
2023/05/22 04:52:34;;;;;;;6.13;5.63;;;;;;;14.94;100.00;96361.38;5078839;28;20203;-64
2023/05/22 04:55:02;;;;;;;6.20;5.70;;;;;;;15.06;100.00;96364.44;5077084;28;20808;-64
2023/05/22 04:57:29;;;;;;;5.47;5.07;;;;;;;15.20;100.00;96360.16;5073620;28;20206;-63
2023/05/22 04:59:55;;;;;;;6.47;5.95;;;;;;;15.35;100.00;96369.03;5073007;28;20367;-64
2023/05/22 05:02:22;;;;;;;6.28;5.75;;;;;;;15.46;100.00;96368.59;5072198;28;20207;-62
2023/05/22 05:04:48;;;;;;;6.07;5.50;;;;;;;15.68;100.00;96362.44;5072133;28;20218;-61
2023/05/22 05:07:16;;;;;;;6.35;5.28;;;;;;;15.91;100.00;96363.19;5073041;28;20210;-61
2023/05/22 05:09:43;;;;;;;6.05;5.55;;;;;;;16.16;100.00;96369.09;5073333;28;20202;-62
2023/05/22 05:12:11;;;;;;;6.10;5.50;;;;;;;16.39;100.00;96369.00;5072573;28;20199;-61
2023/05/22 05:14:37;;;;;;;6.13;5.63;;;;;;;16.65;100.00;96365.88;5072943;28;20208;-61
2023/05/22 05:17:04;;;;;;;7.00;6.40;;;;;;;16.70;100.00;96361.63;5073222;28;20244;-63
2023/05/22 05:19:31;;;;;;;6.78;6.18;;;;;;;16.86;100.00;96361.38;5072409;28;20317;-65
2023/05/22 05:21:57;;;;;;;6.50;6.10;;;;;;;17.05;100.00;96362.63;5073402;28;20203;-65
2023/05/22 05:24:24;;;;;;;6.70;6.10;;;;;;;17.52;100.00;96351.34;5072411;28;20238;-64
2023/05/22 05:26:50;;;;;;;7.28;6.68;;;;;;;17.74;100.00;96355.69;5073740;28;20546;-65
2023/05/22 05:29:18;;;;;;;7.75;7.07;;;;;;;17.81;100.00;96355.72;5072477;28;20313;-64
2023/05/22 05:31:45;;;;;;;11.10;7.03;;;;;;;18.27;100.00;96362.19;5072556;28;20203;-65
2023/05/22 05:34:12;;;;;;;8.73;7.75;;;;;;;18.43;100.00;96366.38;5072700;28;20202;-64
2023/05/22 05:36:39;;;;;;;10.65;7.80;;;;;;;18.69;100.00;96363.88;5073146;28;20215;-63
2023/05/22 05:39:05;;;;;;;10.15;8.30;;;;;;;18.82;100.00;96361.22;5072193;28;20906;-64
2023/05/22 05:41:32;;;;;;;12.40;7.68;;;;;;;19.21;100.00;96365.03;5072217;28;20213;-63
2023/05/22 05:44:00;;;;;;;8.48;7.05;;;;;;;19.39;98.18;96365.28;5072582;28;20203;-63
2023/05/22 05:46:27;;;;;;;8.50;6.88;;;;;;;19.54;95.00;96355.22;5072150;28;20212;-64
2023/05/22 05:48:54;;;;;;;7.63;6.90;;;;;;;19.74;96.42;96361.41;5072622;28;20198;-63
2023/05/22 05:51:21;;;;;;;7.50;6.78;;;;;;;20.02;95.41;96366.53;5072405;28;20203;-62
2023/05/22 05:53:47;;;;;;;7.70;7.00;;;;;;;20.32;94.46;96358.88;5072266;28;20654;-64
2023/05/22 05:56:14;;;;;;;10.05;7.05;;;;;;;20.42;93.74;96361.94;5072260;28;20203;-64
2023/05/22 05:58:43;;;;;;;7.00;6.30;;;;;;;20.63;91.45;96360.84;5072161;28;20268;-64
2023/05/22 06:01:10;;;;;;;7.00;6.30;;;;;;;20.73;93.93;96362.03;5072254;28;20240;-64
2023/05/22 06:03:38;;;;;;;7.20;6.50;;;;;;;20.94;89.82;96362.81;5072850;28;20198;-63
2023/05/22 06:06:06;;;;;;;9.52;6.75;;;;;;;21.02;87.00;96368.75;5071578;28;20292;-64
2023/05/22 06:08:33;;;;;;;8.88;6.03;;;;;;;21.21;86.81;96369.72;5072612;28;20211;-64
2023/05/22 06:10:59;;;;;;;6.60;6.00;;;;;;;21.39;88.61;96371.66;5072347;28;20198;-63
2023/05/22 06:13:26;;;;;;;11.18;6.55;;;;;;;21.67;85.18;96370.22;5072034;28;20222;-63
2023/05/22 06:15:53;;;;;;;6.40;5.80;;;;;;;21.72;81.99;96378.44;5072248;28;20198;-63
2023/05/22 06:18:19;;;;;;;6.82;6.13;;;;;;;21.82;82.92;96373.41;5072142;28;20650;-63
2023/05/22 06:20:47;;;;;;;6.90;6.30;;;;;;;22.20;81.08;96381.41;5071854;28;20226;-64
2023/05/22 06:23:14;;;;;;;9.98;6.72;;;;;;;22.16;80.75;96376.66;5072321;28;20233;-63
2023/05/22 06:25:40;;;;;;;10.05;6.80;;;;;;;22.10;80.56;96385.63;5072406;28;20206;-65
2023/05/22 06:28:07;;;;;;;7.10;6.40;;;;;;;22.44;78.03;96382.38;5072284;28;20202;-64
2023/05/22 06:30:33;;;;;;;6.78;6.15;;;;;;;22.58;78.61;96378.50;5072708;28;20198;-65
2023/05/22 06:33:00;;;;;;;7.07;6.22;;;;;;;22.62;76.85;96376.19;5073436;28;20195;-62
2023/05/22 06:35:27;;;;;;;7.13;6.43;;;;;;;22.65;79.43;96381.13;5083612;28;20220;-64
2023/05/22 06:37:55;;;;;;;6.53;5.93;;;;;;;23.04;77.50;96382.53;5092159;28;20222;-65
2023/05/22 06:40:21;;;;;;;7.70;6.88;;;;;;;23.08;76.16;96365.69;5090266;28;20206;-63
2023/05/22 06:42:48;;;;;;;7.35;6.35;;;;;;;23.24;73.58;96372.31;5094066;28;20198;-62
2023/05/22 06:45:16;;;;;;;7.43;6.20;;;;;;;23.36;75.14;96369.66;5076572;28;20279;-64
2023/05/22 06:47:43;;;;;;;6.28;5.78;;;;;;;23.50;76.29;96374.66;5072305;28;20206;-64
2023/05/22 06:50:10;;;;;;;7.05;6.28;;;;;;;23.72;72.26;96373.09;5070994;28;20642;-63
2023/05/22 06:52:37;;;;;;;6.72;6.00;;;;;;;23.49;72.95;96370.31;5071691;28;20291;-63
2023/05/22 06:55:07;;;;;;;6.68;5.65;;;;;;;23.77;71.61;96367.00;5071320;28;20415;-63
2023/05/22 06:57:33;;;;;;;7.38;6.20;;;;;;;23.76;71.63;96370.75;5072247;28;20206;-64
2023/05/22 07:00:00;;;;;;;6.28;5.50;;;;;;;23.68;71.90;96374.59;5071384;28;20372;-62
2023/05/22 07:02:27;;;;;;;6.63;5.65;;;;;;;23.92;71.18;96370.06;5071420;28;20289;-64
2023/05/22 07:04:54;;;;;;;6.85;6.18;;;;;;;24.20;68.20;96377.50;5071096;28;20214;-64
2023/05/22 07:07:20;;;;;;;6.18;5.68;;;;;;;24.20;72.16;96366.69;5071233;28;20269;-65
2023/05/22 07:09:47;;;;;;;8.10;6.20;;;;;;;24.08;69.82;96373.97;5071148;28;20750;-64
2023/05/22 07:12:15;;;;;;;5.82;5.18;;;;;;;24.43;68.98;96372.09;5070619;28;20605;-63
2023/05/22 07:14:41;;;;;;;5.40;4.90;;;;;;;24.59;67.53;96368.66;5070791;28;20211;-63
2023/05/22 07:17:08;;;;;;;5.50;5.00;;;;;;;24.61;65.29;96371.97;5070668;28;20289;-65
2023/05/22 07:19:35;;;;;;;6.45;5.43;;;;;;;24.91;68.90;96368.28;5070895;28;20563;-64
2023/05/22 07:22:01;;;;;;;5.50;5.00;;;;;;;25.26;65.64;96369.81;5070326;28;20226;-64
2023/05/22 07:24:28;;;;;;;5.32;4.85;;;;;;;25.30;68.36;96372.84;5071199;28;20202;-64
2023/05/22 07:26:54;;;;;;;6.30;5.05;;;;;;;25.16;64.57;96376.91;5070562;28;20225;-63
2023/05/22 07:29:22;;;;;;;5.32;4.93;;;;;;;25.27;66.51;96367.91;5070321;28;20605;-65
2023/05/22 07:31:48;;;;;;;5.65;4.80;;;;;;;25.38;66.16;96364.34;5070603;28;20284;-63
2023/05/22 07:34:16;;;;;;;5.35;4.80;;;;;;;25.52;63.11;96375.72;5070834;28;20217;-63
2023/05/22 07:36:42;;;;;;;4.85;4.45;;;;;;;25.78;66.14;96375.13;5070219;28;20652;-64
2023/05/22 07:39:09;;;;;;;10.30;4.00;;;;;;;26.02;65.50;96367.66;5069828;28;20528;-63
2023/05/22 07:41:35;;;;;;;4.13;3.78;;;;;;;25.96;62.76;96365.94;5070524;28;20194;-62
2023/05/22 07:44:01;;;;;;;4.75;4.32;;;;;;;26.13;64.02;96364.03;5070205;28;20210;-63
2023/05/22 07:46:29;;;;;;;4.65;4.18;;;;;;;26.05;62.76;96361.72;5070783;28;20210;-64
2023/05/22 07:48:56;;;;;;;4.32;3.00;;;;;;;26.24;56.08;96360.44;5070732;28;20202;-63
2023/05/22 07:51:22;;;;;;;3.17;2.97;;;;;;;26.06;61.02;96355.25;5070465;28;20214;-65
2023/05/22 07:53:49;;;;;;;3.80;3.25;;;;;;;26.19;58.45;96371.19;5070487;28;20531;-63
2023/05/22 07:56:17;;;;;;;4.00;3.70;;;;;;;26.31;59.00;96363.81;5070152;28;20236;-64
2023/05/22 07:58:46;;;;;;;3.00;2.80;;;;;;;26.31;60.69;96357.56;5070269;28;20203;-64
2023/05/22 08:01:14;;;;;;;3.08;2.78;;;;;;;26.20;56.29;96353.88;5070279;28;20249;-65
2023/05/22 08:03:42;;;;;;;2.70;2.60;;;;;;;26.03;60.69;96353.88;5070251;28;20301;-63
2023/05/22 08:06:10;;;;;;;3.42;3.22;;;;;;;26.15;55.69;96351.03;5070162;28;20211;-63
2023/05/22 08:08:37;;;;;;;3.30;3.00;;;;;;;25.90;59.52;96354.19;5070977;28;20217;-64
2023/05/22 08:11:04;;;;;;;2.80;2.60;;;;;;;25.88;56.13;96345.47;5070349;28;20643;-64
2023/05/22 08:13:31;;;;;;;2.85;2.65;;;;;;;26.12;57.06;96348.84;5069926;28;20194;-63
2023/05/22 08:15:57;;;;;;;2.90;2.70;;;;;;;26.17;53.59;96351.63;5069872;28;20210;-63
2023/05/22 08:18:26;;;;;;;2.47;2.38;;;;;;;25.96;54.98;96355.09;5070462;28;20206;-64
2023/05/22 08:20:54;;;;;;;2.40;2.30;;;;;;;26.36;54.82;96349.50;5069758;28;20833;-64
2023/05/22 08:23:21;;;;;;;3.13;2.83;;;;;;;26.33;54.13;96342.69;5070217;28;20641;-64
2023/05/22 08:25:48;;;;;;;3.22;2.83;;;;;;;26.05;54.16;96349.00;5074043;28;20217;-64
2023/05/22 08:28:15;;;;;;;3.13;2.92;;;;;;;25.70;55.88;96351.13;5073589;28;20234;-64
2023/05/22 08:30:41;;;;;;;3.30;2.80;;;;;;;25.88;54.22;96347.38;5073649;28;20206;-65
2023/05/22 08:33:08;;;;;;;2.95;2.75;;;;;;;25.92;56.61;96351.22;5073814;28;20229;-63
2023/05/22 08:35:34;;;;;;;4.00;2.80;;;;;;;25.92;51.88;96343.94;5074036;28;20240;-63
2023/05/22 08:38:02;;;;;;;3.00;2.60;;;;;;;26.21;56.32;96344.69;5073747;28;20198;-63
2023/05/22 08:40:36;;;;;;;2.95;2.65;;;;;;;26.34;52.98;96344.31;5073718;28;20233;-62
2023/05/22 08:43:04;;;;;;;3.50;2.30;;;;;;;26.40;51.66;96345.22;5073435;28;20247;-63
2023/05/22 08:45:32;;;;;;;3.15;2.95;;;;;;;26.76;53.51;96343.81;5073370;28;20671;-63
2023/05/22 08:48:00;;;;;;;3.03;2.83;;;;;;;26.59;55.80;96341.97;5073890;28;20203;-64
2023/05/22 08:50:27;;;;;;;3.28;2.97;;;;;;;27.03;52.74;96340.09;5073719;28;20210;-64
2023/05/22 08:52:56;;;;;;;3.30;3.10;;;;;;;26.99;52.42;96343.59;5073203;28;20207;-63
2023/05/22 08:55:23;;;;;;;3.33;3.03;;;;;;;26.95;54.44;96343.28;5073522;28;20623;-65
2023/05/22 08:57:50;;;;;;;4.53;3.40;;;;;;;27.25;55.23;96345.50;5073041;28;20198;-63
2023/05/22 09:00:18;;;;;;;2.88;2.67;;;;;;;27.25;53.05;96334.66;5073446;28;20237;-65
2023/05/22 09:02:46;;;;;;;3.85;3.47;;;;;;;27.50;54.04;96334.94;5073147;28;20584;-64
2023/05/22 09:05:13;;;;;;;3.85;3.55;;;;;;;27.09;52.65;96343.72;5073717;28;20207;-64
2023/05/22 09:07:39;;;;;;;5.50;3.10;;;;;;;27.48;53.01;96342.53;5073056;28;20234;-62
2023/05/22 09:10:07;;;;;;;3.22;3.03;;;;;;;27.44;53.18;96337.84;5073553;28;20201;-63
2023/05/22 09:12:35;;;;;;;3.42;3.22;;;;;;;27.08;54.61;96339.34;5072901;28;20203;-64
2023/05/22 09:15:08;;;;;;;3.15;2.83;;;;;;;27.39;50.70;96335.88;5072935;28;20264;-63
2023/05/22 09:17:35;;;;;;;3.30;2.83;;;;;;;27.68;50.88;96331.84;5073293;28;20233;-64
2023/05/22 09:20:04;;;;;;;3.25;3.05;;;;;;;27.65;49.57;96337.00;5078592;28;20218;-65
2023/05/22 09:22:36;;;;;;;3.00;2.88;;;;;;;27.59;51.75;96336.13;5076787;28;20230;-63
2023/05/22 09:25:03;;;;;;;2.92;2.80;;;;;;;27.61;48.83;96331.25;5075972;28;20240;-64
2023/05/22 09:27:30;;;;;;;3.65;3.15;;;;;;;27.70;53.25;96326.97;5073362;28;20209;-64
2023/05/22 09:29:58;;;;;;;3.40;3.10;;;;;;;27.85;50.76;96329.00;5072380;28;21291;-62
2023/05/22 09:32:24;;;;;;;3.20;2.85;;;;;;;27.76;49.73;96327.03;5072775;28;20198;-64
2023/05/22 09:34:51;;;;;;;6.57;5.05;;;;;;;28.11;52.03;96324.63;5072904;28;20218;-63
2023/05/22 09:37:18;;;;;;;4.32;3.55;;;;;;;28.04;51.44;96322.09;5072205;28;20206;-65
2023/05/22 09:39:46;;;;;;;3.13;2.92;;;;;;;27.80;50.14;96328.16;5072874;28;20210;-64
2023/05/22 09:42:15;;;;;;;3.20;3.00;;;;;;;27.25;48.69;96326.50;5072596;28;20279;-63
2023/05/22 09:44:43;;;;;;;3.17;2.97;;;;;;;27.45;52.45;96326.75;5072323;28;20234;-65
2023/05/22 09:47:14;;;;;;;3.15;2.95;;;;;;;27.61;52.64;96336.69;5072408;28;20574;-64
2023/05/22 09:49:42;;;;;;;3.40;3.08;;;;;;;27.56;52.26;96314.88;5072138;28;20203;-63
2023/05/22 09:52:11;;;;;;;3.20;3.00;;;;;;;27.68;50.55;96320.16;5072876;28;20206;-64
2023/05/22 09:54:40;;;;;;;4.15;3.25;;;;;;;28.00;51.00;96314.72;5072321;28;20234;-63
2023/05/22 09:57:08;;;;;;;3.75;3.00;;;;;;;28.28;53.89;96311.69;5072332;28;20229;-63
2023/05/22 09:59:39;;;;;;;3.25;3.05;;;;;;;28.45;47.75;96315.03;5071838;28;20199;-65
2023/05/22 10:02:06;;;;;;;3.25;2.97;;;;;;;28.31;49.31;96318.47;5072428;28;20225;-65
2023/05/22 10:04:34;;;;;;;3.20;3.00;;;;;;;28.02;48.67;96310.66;5072251;28;20207;-64
2023/05/22 10:07:02;;;;;;;3.10;2.90;;;;;;;28.29;50.47;96310.59;5071720;28;20198;-63
2023/05/22 10:09:33;;;;;;;3.83;3.08;;;;;;;28.35;45.68;96309.53;5072063;28;20216;-64
2023/05/22 10:12:04;;;;;;;2.55;2.30;;;;;;;28.22;45.17;96304.56;5072184;28;20198;-66
2023/05/22 10:14:30;;;;;;;4.72;2.60;;;;;;;28.19;44.58;96299.66;5072006;28;20534;-65
2023/05/22 10:17:00;;;;;;;3.70;3.40;;;;;;;28.34;47.27;96301.66;5077323;28;20511;-64
2023/05/22 10:19:29;;;;;;;4.70;3.38;;;;;;;28.20;48.86;96295.84;5077163;28;20594;-63
2023/05/22 10:21:58;;;;;;;3.30;3.10;;;;;;;28.18;49.96;96298.03;5076517;28;20214;-64
2023/05/22 10:24:25;;;;;;;3.58;3.28;;;;;;;28.16;50.45;96298.25;5071112;28;20219;-65
2023/05/22 10:26:53;;;;;;;3.55;3.35;;;;;;;28.13;51.21;96292.53;5071919;28;20258;-62
2023/05/22 10:29:23;;;;;;;3.75;3.40;;;;;;;28.39;46.99;96288.91;5071279;28;20638;-64
2023/05/22 10:31:55;;;;;;;4.00;3.70;;;;;;;28.22;46.65;96293.69;5071477;28;20214;-65
2023/05/22 10:34:28;;;;;;;4.13;3.83;;;;;;;28.32;49.45;96282.88;5071626;28;20210;-65
2023/05/22 10:37:05;;;;;;;4.32;3.92;;;;;;;28.29;44.44;96279.88;5071688;28;20217;-62
2023/05/22 10:39:39;;;;;;;4.00;3.60;;;;;;;28.55;47.43;96278.94;5071751;28;20190;-63
2023/05/22 10:42:05;;;;;;;4.28;3.88;;;;;;;28.82;48.45;96276.06;5071145;28;20210;-63
2023/05/22 10:44:33;;;;;;;3.92;3.63;;;;;;;29.06;48.06;96271.78;5071112;28;20206;-63
2023/05/22 10:47:09;;;;;;;4.55;4.15;;;;;;;28.71;46.13;96269.75;5070525;28;20206;-65
2023/05/22 10:49:35;;;;;;;5.45;4.25;;;;;;;29.05;48.94;96276.41;5071122;28;20198;-64
2023/05/22 10:52:04;;;;;;;4.00;3.65;;;;;;;29.11;46.18;96263.63;5071245;28;20202;-64
2023/05/22 10:54:39;;;;;;;4.05;3.63;;;;;;;29.26;44.53;96260.97;5070892;28;20210;-65
2023/05/22 10:57:14;;;;;;;3.65;3.00;;;;;;;29.15;46.59;96267.47;5070999;28;20858;-65
2023/05/22 10:59:41;;;;;;;4.03;3.72;;;;;;;28.77;44.17;96262.44;5070719;28;20233;-65
2023/05/22 11:02:19;;;;;;;3.75;3.38;;;;;;;29.10;48.62;96256.53;5070614;28;20237;-64
2023/05/22 11:04:45;;;;;;;5.68;4.40;;;;;;;29.50;45.75;96250.38;5070864;28;20209;-64
2023/05/22 11:07:14;;;;;;;3.95;3.65;;;;;;;29.64;44.37;96257.72;5070991;28;20627;-64
2023/05/22 11:09:42;;;;;;;3.55;3.28;;;;;;;29.65;44.15;96251.16;5070999;28;20206;-64
2023/05/22 11:12:16;;;;;;;3.50;3.20;;;;;;;29.74;43.80;96246.00;5071048;28;20198;-63
2023/05/22 11:14:43;;;;;;;3.58;3.38;;;;;;;29.84;43.30;96247.88;5070129;28;20214;-63
2023/05/22 11:17:12;;;;;;;3.65;3.35;;;;;;;30.08;46.34;96244.34;5070573;28;20288;-63
2023/05/22 11:19:41;;;;;;;3.35;3.15;;;;;;;30.21;44.55;96242.16;5071073;28;20209;-64
2023/05/22 11:22:08;;;;;;;3.90;3.63;;;;;;;30.29;45.15;96241.59;5070576;28;20249;-63
2023/05/22 11:24:37;;;;;;;4.38;3.47;;;;;;;30.21;44.10;96245.69;5071175;28;20214;-65
2023/05/22 11:27:06;;;;;;;4.18;3.20;;;;;;;30.39;42.74;96247.00;5070420;28;20218;-62
2023/05/22 11:29:32;;;;;;;3.70;3.42;;;;;;;30.25;39.59;96244.06;5070226;28;20209;-63
2023/05/22 11:31:59;;;;;;;3.83;3.53;;;;;;;30.08;40.56;96241.63;5071126;28;20514;-63